Aviation Digital Data Service (ADDS)

Output produced by METARs form (2300 UTC 28 January 2020)
found at http://aviationweather.gov/metar/data/
 
KCLT 282252Z 23003KT 10SM FEW180 FEW250 12/M01 A2996 RMK AO2 SLP147 T01171006
KCLT 282207Z 2822/2924 29004KT P6SM FEW045 FEW250 
     FM290500 35003KT P6SM FEW210 
     FM291300 04004KT P6SM SCT100 
     FM292000 07004KT P6SM BKN040